Time;durP1;ratioP1;P1;durP2;ratioP2;P2;SDS_P1;SDS_P2;PMS_P1;PMS_P2;Temp;Humidity;BMP_temperature;BMP_pressure;BME280_temperature;BME280_humidity;BME280_pressure;Samples;Min_cycle;Max_cycle;Signal;HPM_P1;HPM_P2
2022/10/12 00:00:12;;;;;;;51.80;41.72;;;;;;;;;;5075524;28;20020;-78
2022/10/12 00:02:37;;;;;;;52.63;41.00;;;;;;;;;;5080951;28;20024;-77
2022/10/12 00:05:03;;;;;;;49.92;39.20;;;;;;;;;;5081712;28;20099;-79
2022/10/12 00:07:28;;;;;;;43.50;35.30;;;;;;;;;;5081897;28;20019;-79
2022/10/12 00:09:54;;;;;;;69.50;56.80;;;;;;;;;;5081569;28;20076;-77
2022/10/12 00:12:19;;;;;;;72.85;50.67;;;;;;;;;;5081379;28;20031;-78
2022/10/12 00:14:44;;;;;;;60.67;45.80;;;;;;;;;;5081318;28;20332;-78
2022/10/12 00:17:10;;;;;;;64.32;47.28;;;;;;;;;;5080475;28;20024;-77
2022/10/12 00:19:35;;;;;;;75.03;52.15;;;;;;;;;;5081612;28;20106;-78
2022/10/12 00:22:00;;;;;;;58.92;46.78;;;;;;;;;;5080566;28;20027;-80
2022/10/12 00:24:26;;;;;;;37.05;29.98;;;;;;;;;;5079287;28;20027;-77
2022/10/12 00:26:51;;;;;;;36.22;29.50;;;;;;;;;;5080962;28;20024;-78
2022/10/12 00:29:16;;;;;;;36.97;28.65;;;;;;;;;;5081504;28;20108;-77
2022/10/12 00:31:42;;;;;;;42.80;28.70;;;;;;;;;;5071383;28;20319;-77
2022/10/12 00:34:08;;;;;;;38.47;27.42;;;;;;;;;;5079458;28;20120;-76
2022/10/12 00:36:34;;;;;;;41.13;27.60;;;;;;;;;;5079758;28;20032;-77
2022/10/12 00:39:00;;;;;;;48.15;35.13;;;;;;;;;;5079137;28;20020;-77
2022/10/12 00:41:31;;;;;;;59.47;43.25;;;;;;;;;;5080545;28;20028;-77
2022/10/12 00:43:57;;;;;;;50.15;34.92;;;;;;;;;;5081182;28;20545;-77
2022/10/12 00:46:26;;;;;;;49.33;38.53;;;;;;;;;;5081074;28;20140;-78
2022/10/12 00:49:01;;;;;;;41.42;33.85;;;;;;;;;;5080441;28;20347;-77
2022/10/12 00:51:27;;;;;;;44.72;32.25;;;;;;;;;;5079799;28;20020;-77
2022/10/12 00:53:56;;;;;;;38.55;29.85;;;;;;;;;;5081590;28;20165;-78
2022/10/12 00:56:24;;;;;;;35.95;28.30;;;;;;;;;;5080242;28;20868;-76
2022/10/12 00:58:50;;;;;;;38.47;32.75;;;;;;;;;;5080791;28;20069;-76
2022/10/12 01:01:15;;;;;;;54.08;39.47;;;;;;;;;;5080598;28;20077;-76
2022/10/12 01:03:41;;;;;;;49.65;39.33;;;;;;;;;;5074778;28;20019;-77
2022/10/12 01:06:06;;;;;;;46.50;35.20;;;;;;;;;;5075346;28;20028;-78
2022/10/12 01:08:32;;;;;;;36.72;28.52;;;;;;;;;;5080004;28;20024;-76
2022/10/12 01:10:57;;;;;;;41.38;27.75;;;;;;;;;;5080248;28;20024;-77
2022/10/12 01:13:23;;;;;;;34.10;21.73;;;;;;;;;;5079664;28;20059;-77
2022/10/12 01:15:55;;;;;;;22.30;18.05;;;;;;;;;;5080095;28;20012;-77
2022/10/12 01:18:22;;;;;;;20.83;16.83;;;;;;;;;;5081127;28;20031;-77
2022/10/12 01:21:10;;;;;;;20.83;16.92;;;;;;;;;;5078789;28;20016;-80
2022/10/12 01:23:47;;;;;;;36.90;28.20;;;;;;;;;;5068732;28;20057;-77
2022/10/12 01:26:16;;;;;;;33.10;26.98;;;;;;;;;;5080317;28;20059;-77
2022/10/12 01:28:54;;;;;;;32.70;25.42;;;;;;;;;;5079203;28;20036;-78
2022/10/12 01:31:25;;;;;;;32.28;25.35;;;;;;;;;;5079595;28;20032;-76
2022/10/12 01:33:55;;;;;;;38.97;26.77;;;;;;;;;;5078877;28;20447;-79
2022/10/12 01:36:30;;;;;;;38.95;26.75;;;;;;;;;;5078987;28;20070;-79
2022/10/12 01:39:03;;;;;;;29.55;21.35;;;;;;;;;;5072830;28;20055;-77
2022/10/12 01:41:31;;;;;;;23.35;19.33;;;;;;;;;;5075564;28;20024;-76
2022/10/12 01:43:56;;;;;;;29.08;21.98;;;;;;;;;;5068970;28;20031;-77
2022/10/12 01:46:24;;;;;;;24.55;20.23;;;;;;;;;;5078574;28;20402;-78
2022/10/12 01:48:58;;;;;;;32.88;21.65;;;;;;;;;;5079884;28;20024;-77
2022/10/12 01:51:30;;;;;;;28.83;19.92;;;;;;;;;;5079211;28;20024;-78
2022/10/12 01:54:25;;;;;;;24.15;17.75;;;;;;;;;;5083969;28;20031;-77
2022/10/12 01:57:01;;;;;;;26.58;21.30;;;;;;;;;;4993679;28;20054;-76
2022/10/12 01:59:27;;;;;;;28.85;20.88;;;;;;;;;;4994291;28;20037;-77
2022/10/12 02:01:57;;;;;;;21.15;17.50;;;;;;;;;;4994731;28;20362;-76
2022/10/12 02:04:25;;;;;;;21.92;18.13;;;;;;;;;;4990264;28;20033;-77
2022/10/12 02:07:00;;;;;;;19.95;15.77;;;;;;;;;;4979160;28;20041;-76
2022/10/12 02:09:27;;;;;;;23.73;19.48;;;;;;;;;;4993449;28;20030;-76
2022/10/12 02:11:56;;;;;;;23.85;19.73;;;;;;;;;;4987224;28;20049;-77
2022/10/12 02:14:24;;;;;;;28.20;21.63;;;;;;;;;;4995305;28;20053;-77
2022/10/12 02:16:51;;;;;;;49.30;35.87;;;;;;;;;;4994759;28;20045;-77
2022/10/12 02:19:20;;;;;;;71.55;49.67;;;;;;;;;;4983289;28;20405;-73
2022/10/12 02:21:46;;;;;;;40.40;31.85;;;;;;;;;;4977486;28;20358;-77
2022/10/12 02:24:13;;;;;;;36.35;28.98;;;;;;;;;;4987641;28;20037;-76
2022/10/12 02:26:41;;;;;;;36.75;29.38;;;;;;;;;;4980404;28;20026;-78
2022/10/12 02:29:09;;;;;;;34.53;25.73;;;;;;;;;;4993359;28;20037;-78
2022/10/12 02:31:41;;;;;;;30.33;24.67;;;;;;;;;;4993452;28;20033;-78
2022/10/12 02:34:09;;;;;;;31.92;27.83;;;;;;;;;;5067974;28;20363;-77
2022/10/12 02:36:35;;;;;;;31.73;24.30;;;;;;;;;;5082975;28;20107;-77
2022/10/12 02:39:04;;;;;;;32.88;28.52;;;;;;;;;;5082706;28;20125;-77
2022/10/12 02:41:30;;;;;;;;;;;;;;;;;;5072548;28;20074;-77
2022/10/12 02:44:05;;;;;;;30.45;25.17;;;;;;;;;;5083187;28;19912;-77
2022/10/12 02:46:32;;;;;;;28.08;24.58;;;;;;;;;;5081939;28;20083;-79
2022/10/12 02:48:58;;;;;;;29.23;22.83;;;;;;;;;;5082524;28;20028;-77
2022/10/12 02:51:25;;;;;;;26.52;22.73;;;;;;;;;;5082686;28;20012;-76
2022/10/12 02:53:50;;;;;;;28.10;23.38;;;;;;;;;;5070230;28;20439;-76
2022/10/12 02:56:15;;;;;;;26.73;22.45;;;;;;;;;;5072093;28;20081;-77
2022/10/12 02:58:45;;;;;;;25.25;22.55;;;;;;;;;;5080076;28;20036;-76
2022/10/12 03:01:11;;;;;;;28.40;23.08;;;;;;;;;;5083474;28;20386;-79
2022/10/12 03:03:37;;;;;;;41.78;33.63;;;;;;;;;;5082864;28;20070;-76
2022/10/12 03:06:02;;;;;;;53.95;40.97;;;;;;;;;;5080579;28;20074;-78
2022/10/12 03:08:28;;;;;;;62.97;50.55;;;;;;;;;;5082033;28;20024;-77
2022/10/12 03:10:53;;;;;;;55.47;42.72;;;;;;;;;;5081214;28;20028;-77
2022/10/12 03:13:18;;;;;;;37.75;27.70;;;;;;;;;;5076323;28;20032;-78
2022/10/12 03:15:44;;;;;;;26.20;20.85;;;;;;;;;;5073013;28;20051;-79
2022/10/12 03:18:09;;;;;;;54.42;42.78;;;;;;;;;;5082721;28;20043;-79
2022/10/12 03:20:34;;;;;;;38.20;29.73;;;;;;;;;;5083036;28;20020;-78
2022/10/12 03:23:00;;;;;;;51.60;36.90;;;;;;;;;;5082388;28;20020;-78
2022/10/12 03:25:25;;;;;;;80.50;57.38;;;;;;;;;;5082113;28;20024;-78
2022/10/12 03:27:50;;;;;;;70.65;48.08;;;;;;;;;;5081584;28;20482;-77
2022/10/12 03:30:16;;;;;;;59.83;40.22;;;;;;;;;;5081360;28;20024;-76
2022/10/12 03:32:41;;;;;;;48.17;34.40;;;;;;;;;;5082886;28;20060;-75
2022/10/12 03:35:07;;;;;;;42.63;30.77;;;;;;;;;;5083135;28;20028;-78
2022/10/12 03:37:32;;;;;;;68.38;49.08;;;;;;;;;;5073909;28;20068;-78
2022/10/12 03:39:58;;;;;;;44.78;37.03;;;;;;;;;;5079403;28;20127;-78
2022/10/12 03:42:23;;;;;;;23.50;20.13;;;;;;;;;;5082286;28;20055;-78
2022/10/12 03:44:48;;;;;;;39.88;35.85;;;;;;;;;;5081790;28;20028;-79
2022/10/12 03:47:14;;;;;;;57.97;52.25;;;;;;;;;;5081856;28;20056;-79
2022/10/12 03:49:39;;;;;;;48.45;43.85;;;;;;;;;;5073721;28;20024;-78
2022/10/12 03:52:05;;;;;;;30.85;27.83;;;;;;;;;;5080068;28;20445;-78
2022/10/12 03:54:30;;;;;;;49.28;44.22;;;;;;;;;;5081463;28;20024;-77
2022/10/12 03:56:56;;;;;;;59.83;53.65;;;;;;;;;;5080693;28;20035;-77
2022/10/12 03:59:21;;;;;;;59.28;53.17;;;;;;;;;;5071065;28;20032;-77
2022/10/12 04:01:46;;;;;;;60.55;54.60;;;;;;;;;;5077955;28;20359;-77
2022/10/12 04:04:12;;;;;;;60.22;52.85;;;;;;;;;;5071156;28;20387;-76
2022/10/12 04:06:37;;;;;;;51.53;44.22;;;;;;;;;;5062915;28;20024;-79
2022/10/12 04:09:03;;;;;;;46.28;36.40;;;;;;;;;;5068229;28;20027;-78
2022/10/12 04:11:28;;;;;;;44.70;32.80;;;;;;;;;;5066992;28;20451;-79
2022/10/12 04:13:53;;;;;;;33.63;23.58;;;;;;;;;;5065470;28;20028;-79
2022/10/12 04:16:19;;;;;;;30.13;22.45;;;;;;;;;;5068326;28;20031;-76
2022/10/12 04:18:44;;;;;;;33.05;24.05;;;;;;;;;;5067056;28;20036;-78
2022/10/12 04:21:12;;;;;;;53.58;33.45;;;;;;;;;;5076017;28;20589;-77
2022/10/12 04:23:37;;;;;;;51.10;34.60;;;;;;;;;;5065201;28;20463;-79
2022/10/12 04:26:03;;;;;;;49.25;31.17;;;;;;;;;;5067196;28;20035;-78
2022/10/12 04:28:28;;;;;;;57.00;37.40;;;;;;;;;;5081745;28;20024;-78
2022/10/12 04:30:53;;;;;;;80.05;49.25;;;;;;;;;;5081575;28;20027;-79
2022/10/12 04:33:19;;;;;;;84.07;46.50;;;;;;;;;;5081301;28;20115;-79
2022/10/12 04:35:44;;;;;;;105.47;56.85;;;;;;;;;;5081328;28;20028;-78
2022/10/12 04:38:11;;;;;;;123.88;60.63;;;;;;;;;;5081284;28;20390;-78
2022/10/12 04:40:37;;;;;;;104.53;57.00;;;;;;;;;;5080186;28;20419;-76
2022/10/12 04:43:02;;;;;;;62.83;38.20;;;;;;;;;;5080720;28;20051;-77
2022/10/12 04:45:28;;;;;;;33.42;23.88;;;;;;;;;;5077841;28;20020;-78
2022/10/12 04:47:53;;;;;;;30.10;20.33;;;;;;;;;;5072097;28;20054;-78
2022/10/12 04:50:18;;;;;;;26.33;19.52;;;;;;;;;;5080512;28;20038;-79
2022/10/12 04:52:44;;;;;;;28.50;20.73;;;;;;;;;;5070429;28;20059;-78
2022/10/12 04:55:09;;;;;;;46.03;29.35;;;;;;;;;;5076879;28;20028;-78
2022/10/12 04:57:35;;;;;;;35.72;26.42;;;;;;;;;;5071302;28;20339;-77
2022/10/12 05:00:00;;;;;;;28.25;21.75;;;;;;;;;;5066508;28;20024;-78
2022/10/12 05:02:25;;;;;;;23.40;20.63;;;;;;;;;;5065328;28;20035;-78
2022/10/12 05:04:51;;;;;;;25.33;21.20;;;;;;;;;;5067992;28;20036;-78
2022/10/12 05:07:16;;;;;;;32.38;25.75;;;;;;;;;;5067478;28;20085;-77
2022/10/12 05:09:42;;;;;;;56.97;50.83;;;;;;;;;;5079371;28;20050;-80
2022/10/12 05:12:07;;;;;;;44.03;34.33;;;;;;;;;;5069647;28;20024;-79
2022/10/12 05:14:32;;;;;;;34.10;28.75;;;;;;;;;;5075150;28;20039;-77
2022/10/12 05:16:58;;;;;;;25.10;21.00;;;;;;;;;;5075235;28;20032;-78
2022/10/12 05:19:25;;;;;;;22.77;19.50;;;;;;;;;;5065989;28;20043;-77
2022/10/12 05:21:52;;;;;;;21.17;18.58;;;;;;;;;;5067349;28;20024;-78
2022/10/12 05:24:17;;;;;;;19.75;17.13;;;;;;;;;;5067058;28;20024;-76
2022/10/12 05:26:42;;;;;;;34.75;24.60;;;;;;;;;;5076521;28;20024;-80
2022/10/12 05:29:08;;;;;;;46.72;37.00;;;;;;;;;;5085704;28;20051;-79
2022/10/12 05:31:33;;;;;;;29.80;26.05;;;;;;;;;;5085902;28;20058;-79
2022/10/12 05:33:59;;;;;;;30.80;26.13;;;;;;;;;;5085199;28;20032;-80
2022/10/12 05:36:24;;;;;;;46.60;33.33;;;;;;;;;;5086124;28;20050;-80
2022/10/12 05:38:49;;;;;;;35.83;27.27;;;;;;;;;;5085364;28;20047;-78
2022/10/12 05:41:15;;;;;;;27.75;24.17;;;;;;;;;;5084451;28;20019;-79
2022/10/12 05:43:40;;;;;;;31.92;27.75;;;;;;;;;;5083933;28;20027;-79
2022/10/12 05:46:05;;;;;;;56.88;41.10;;;;;;;;;;5078645;28;20043;-80
2022/10/12 05:48:32;;;;;;;83.40;64.50;;;;;;;;;;5077959;28;20110;-79
2022/10/12 05:50:57;;;;;;;86.53;61.13;;;;;;;;;;5085036;28;20028;-78
2022/10/12 05:53:23;;;;;;;63.58;47.33;;;;;;;;;;5084321;28;20028;-78
2022/10/12 05:55:55;;;;;;;39.95;34.33;;;;;;;;;;5084135;28;20024;-76
2022/10/12 05:58:21;;;;;;;41.90;37.28;;;;;;;;;;5084696;28;20120;-78
2022/10/12 06:00:46;;;;;;;50.25;42.10;;;;;;;;;;5083281;28;20115;-78
2022/10/12 06:03:12;;;;;;;73.32;55.67;;;;;;;;;;5082872;28;20091;-78
2022/10/12 06:05:37;;;;;;;76.13;55.33;;;;;;;;;;5084046;28;20024;-76
2022/10/12 06:08:03;;;;;;;44.58;37.78;;;;;;;;;;5083256;28;20103;-78
2022/10/12 06:10:28;;;;;;;56.58;45.80;;;;;;;;;;5083523;28;20439;-78
2022/10/12 06:12:53;;;;;;;96.38;76.90;;;;;;;;;;5083323;28;20380;-78
2022/10/12 06:15:19;;;;;;;95.30;73.80;;;;;;;;;;5084227;28;20031;-79
2022/10/12 06:17:44;;;;;;;87.10;69.28;;;;;;;;;;5082797;28;20040;-79
2022/10/12 06:20:10;;;;;;;106.45;84.28;;;;;;;;;;5084284;28;20020;-79
2022/10/12 06:22:35;;;;;;;80.15;65.07;;;;;;;;;;5083652;28;20765;-78
2022/10/12 06:25:00;;;;;;;61.95;45.45;;;;;;;;;;5083678;28;20518;-77
2022/10/12 06:27:26;;;;;;;112.45;75.85;;;;;;;;;;5083525;28;20028;-79
2022/10/12 06:29:51;;;;;;;117.43;82.97;;;;;;;;;;5083087;28;20066;-82
2022/10/12 06:32:16;;;;;;;108.40;97.18;;;;;;;;;;5083495;28;20028;-78
2022/10/12 06:34:42;;;;;;;51.53;46.03;;;;;;;;;;5084118;28;20032;-77
2022/10/12 06:37:07;;;;;;;49.65;41.47;;;;;;;;;;5081245;28;20032;-77
2022/10/12 06:39:33;;;;;;;41.85;36.33;;;;;;;;;;5083766;28;20403;-78
2022/10/12 06:41:58;;;;;;;25.88;21.13;;;;;;;;;;5083038;28;20024;-79
2022/10/12 06:44:23;;;;;;;23.85;21.00;;;;;;;;;;5073710;28;20028;-76
2022/10/12 06:46:49;;;;;;;34.35;27.85;;;;;;;;;;5081798;28;20051;-77
2022/10/12 06:49:15;;;;;;;33.85;27.85;;;;;;;;;;5083143;28;20396;-78
2022/10/12 06:51:41;;;;;;;31.75;28.25;;;;;;;;;;5080523;28;20490;-76
2022/10/12 06:54:06;;;;;;;33.60;25.63;;;;;;;;;;5082331;28;20119;-77
2022/10/12 06:56:32;;;;;;;31.42;26.13;;;;;;;;;;5071446;28;20031;-76
2022/10/12 06:58:57;;;;;;;43.00;32.65;;;;;;;;;;5081767;28;20054;-79
2022/10/12 07:01:23;;;;;;;37.15;31.50;;;;;;;;;;5082575;28;20035;-77
2022/10/12 07:03:48;;;;;;;27.58;22.90;;;;;;;;;;5083640;28;20482;-77
2022/10/12 07:06:14;;;;;;;23.52;19.75;;;;;;;;;;5080331;28;20016;-77
2022/10/12 07:08:40;;;;;;;31.05;24.55;;;;;;;;;;5074543;28;20118;-75
2022/10/12 07:11:07;;;;;;;74.43;54.38;;;;;;;;;;5080755;28;20466;-77
2022/10/12 07:13:33;;;;;;;44.13;36.00;;;;;;;;;;5082636;28;20110;-80
2022/10/12 07:15:58;;;;;;;45.80;37.92;;;;;;;;;;5079395;28;20099;-74
2022/10/12 07:18:24;;;;;;;52.03;42.38;;;;;;;;;;5082428;28;20493;-77
2022/10/12 07:20:49;;;;;;;47.22;40.67;;;;;;;;;;5053171;28;20049;-76
2022/10/12 07:23:15;;;;;;;50.88;38.72;;;;;;;;;;5050511;28;20036;-75
2022/10/12 07:25:46;;;;;;;44.28;35.35;;;;;;;;;;5030232;28;20122;-78
2022/10/12 07:28:11;;;;;;;47.70;40.72;;;;;;;;;;5048884;28;20440;-77
2022/10/12 07:30:36;;;;;;;40.35;34.38;;;;;;;;;;5052895;28;20057;-78
2022/10/12 07:33:02;;;;;;;37.80;31.42;;;;;;;;;;5051057;28;20055;-77
2022/10/12 07:35:27;;;;;;;36.67;29.52;;;;;;;;;;5054895;28;20071;-78
2022/10/12 07:37:53;;;;;;;37.38;31.50;;;;;;;;;;5040737;28;20041;-77
2022/10/12 07:40:18;;;;;;;39.95;35.63;;;;;;;;;;5030930;28;20444;-78
2022/10/12 07:42:43;;;;;;;38.30;34.28;;;;;;;;;;5035122;28;20092;-77
2022/10/12 07:45:09;;;;;;;40.85;33.75;;;;;;;;;;5032958;28;20501;-78
2022/10/12 07:47:34;;;;;;;42.97;37.97;;;;;;;;;;5031431;28;20056;-77
2022/10/12 07:50:00;;;;;;;51.90;42.33;;;;;;;;;;5032229;28;20444;-77
2022/10/12 07:52:27;;;;;;;37.55;33.58;;;;;;;;;;5058622;28;20054;-77
2022/10/12 07:54:52;;;;;;;36.15;30.88;;;;;;;;;;5069205;28;20439;-79
2022/10/12 07:57:18;;;;;;;36.72;27.27;;;;;;;;;;5067586;28;20090;-77
2022/10/12 07:59:43;;;;;;;27.05;24.20;;;;;;;;;;5067342;28;20031;-77
2022/10/12 08:02:10;;;;;;;26.65;23.25;;;;;;;;;;5068549;28;20355;-77
2022/10/12 08:04:35;;;;;;;29.70;22.38;;;;;;;;;;5068508;28;20035;-76
2022/10/12 08:07:01;;;;;;;42.78;38.28;;;;;;;;;;5067701;28;20024;-77
2022/10/12 08:09:26;;;;;;;31.05;25.42;;;;;;;;;;5068146;28;20047;-78
2022/10/12 08:11:52;;;;;;;35.53;22.50;;;;;;;;;;5067766;28;20048;-75
2022/10/12 08:14:17;;;;;;;31.45;20.75;;;;;;;;;;5068526;28;20024;-77
2022/10/12 08:16:43;;;;;;;23.30;17.05;;;;;;;;;;5067945;28;20359;-77
2022/10/12 08:19:08;;;;;;;22.17;14.80;;;;;;;;;;5067190;28;20082;-79
2022/10/12 08:21:34;;;;;;;24.52;14.27;;;;;;;;;;5067722;28;20105;-78
2022/10/12 08:23:59;;;;;;;19.08;13.77;;;;;;;;;;5068891;28;20097;-77
2022/10/12 08:26:25;;;;;;;17.05;13.48;;;;;;;;;;5067965;28;20027;-78
2022/10/12 08:28:50;;;;;;;18.20;14.75;;;;;;;;;;5067671;28;20024;-77
2022/10/12 08:31:16;;;;;;;20.25;14.00;;;;;;;;;;5067473;28;20032;-77
2022/10/12 08:33:42;;;;;;;23.10;17.75;;;;;;;;;;5079311;28;20051;-78
2022/10/12 08:36:08;;;;;;;20.88;18.30;;;;;;;;;;5080877;28;20336;-78
2022/10/12 08:38:37;;;;;;;21.35;15.20;;;;;;;;;;5080842;28;20123;-77
2022/10/12 08:41:05;;;;;;;26.63;17.02;;;;;;;;;;5081658;28;20065;-79
2022/10/12 08:43:37;;;;;;;18.65;15.13;;;;;;;;;;5080576;28;20032;-76
2022/10/12 08:46:03;;;;;;;23.48;15.65;;;;;;;;;;5081137;28;20076;-76
2022/10/12 08:48:34;;;;;;;18.98;15.40;;;;;;;;;;5080503;28;20024;-77
2022/10/12 08:51:02;;;;;;;15.98;13.63;;;;;;;;;;5080341;28;20028;-76
2022/10/12 08:53:27;;;;;;;19.33;15.43;;;;;;;;;;5081125;28;20012;-78
2022/10/12 08:55:52;;;;;;;19.92;15.48;;;;;;;;;;5080648;28;20031;-77
2022/10/12 08:58:19;;;;;;;19.38;14.20;;;;;;;;;;5080238;28;20024;-77
2022/10/12 09:00:52;;;;;;;16.98;11.98;;;;;;;;;;5082748;28;20030;-75
2022/10/12 09:03:23;;;;;;;15.13;13.43;;;;;;;;;;5086905;28;20119;-76
2022/10/12 09:05:52;;;;;;;17.65;14.75;;;;;;;;;;5087689;28;20027;-77
2022/10/12 09:08:18;;;;;;;17.30;12.38;;;;;;;;;;5086503;28;20105;-76
2022/10/12 09:10:52;;;;;;;19.90;15.02;;;;;;;;;;5086975;28;20073;-76
2022/10/12 09:13:23;;;;;;;37.15;23.17;;;;;;;;;;5087269;28;20016;-77
2022/10/12 09:16:11;;;;;;;15.73;13.80;;;;;;;;;;5086691;28;20735;-76
2022/10/12 09:18:45;;;;;;;18.90;14.00;;;;;;;;;;5087120;28;20042;-76
2022/10/12 09:21:16;;;;;;;18.15;13.20;;;;;;;;;;5076348;28;21367;-77
2022/10/12 09:23:43;;;;;;;15.48;12.35;;;;;;;;;;5086609;28;20016;-77
2022/10/12 09:26:16;;;;;;;19.63;15.40;;;;;;;;;;5087031;28;20026;-76
2022/10/12 09:28:43;;;;;;;23.30;18.55;;;;;;;;;;5086876;28;20058;-77
2022/10/12 09:31:17;;;;;;;24.65;17.52;;;;;;;;;;5080004;28;20024;-77
2022/10/12 09:33:47;;;;;;;25.17;14.50;;;;;;;;;;5070135;28;20036;-76
2022/10/12 09:36:16;;;;;;;20.08;16.75;;;;;;;;;;5069833;28;20023;-76
2022/10/12 09:38:41;;;;;;;37.60;31.80;;;;;;;;;;5072287;28;20123;-76
2022/10/12 09:41:13;;;;;;;18.98;15.60;;;;;;;;;;5077325;28;20123;-76
2022/10/12 09:43:39;;;;;;;14.32;11.65;;;;;;;;;;5085056;28;20049;-76
2022/10/12 09:46:05;;;;;;;19.60;14.77;;;;;;;;;;5085070;28;20484;-76
2022/10/12 09:48:30;;;;;;;18.05;14.90;;;;;;;;;;5085980;28;20055;-76
2022/10/12 09:50:57;;;;;;;21.73;18.00;;;;;;;;;;5085243;28;20105;-76
2022/10/12 09:53:26;;;;;;;13.40;11.15;;;;;;;;;;5084889;28;20164;-77
2022/10/12 09:56:11;;;;;;;15.18;12.85;;;;;;;;;;5086293;28;20024;-78
2022/10/12 09:58:42;;;;;;;19.23;15.75;;;;;;;;;;5083224;28;20059;-77
2022/10/12 10:01:16;;;;;;;11.52;9.75;;;;;;;;;;5084779;28;20020;-76
2022/10/12 10:03:41;;;;;;;16.33;12.27;;;;;;;;;;5085195;28;20044;-77
2022/10/12 10:06:07;;;;;;;17.20;12.98;;;;;;;;;;5086792;28;20031;-76
2022/10/12 10:08:38;;;;;;;17.90;14.60;;;;;;;;;;5084092;28;20035;-76
2022/10/12 10:11:04;;;;;;;18.73;13.27;;;;;;;;;;5087066;28;20024;-76
2022/10/12 10:13:30;;;;;;;17.67;13.77;;;;;;;;;;5080648;28;20085;-77
2022/10/12 10:16:06;;;;;;;17.40;14.55;;;;;;;;;;5082986;28;20028;-77
2022/10/12 10:18:48;;;;;;;20.77;13.68;;;;;;;;;;5083255;28;20032;-77
2022/10/12 10:21:16;;;;;;;12.55;10.85;;;;;;;;;;5082881;28;20028;-77
2022/10/12 10:23:41;;;;;;;11.65;10.13;;;;;;;;;;5081854;28;20035;-77
2022/10/12 10:26:08;;;;;;;15.25;11.68;;;;;;;;;;5081450;28;20024;-77
2022/10/12 10:28:35;;;;;;;12.93;11.00;;;;;;;;;;5080871;28;20038;-76
2022/10/12 10:31:03;;;;;;;14.77;10.68;;;;;;;;;;5082102;28;20927;-77
2022/10/12 10:33:29;;;;;;;17.40;11.00;;;;;;;;;;5082420;28;20028;-78
2022/10/12 10:36:04;;;;;;;11.55;10.10;;;;;;;;;;5083425;28;20083;-77
2022/10/12 10:38:47;;;;;;;16.27;9.20;;;;;;;;;;5081006;28;20390;-76
2022/10/12 10:41:16;;;;;;;19.25;12.07;;;;;;;;;;5082182;28;20039;-75
2022/10/12 10:43:44;;;;;;;19.65;14.32;;;;;;;;;;5082933;28;20055;-75
2022/10/12 10:46:11;;;;;;;13.18;10.23;;;;;;;;;;5081139;28;20048;-77
2022/10/12 10:48:57;;;;;;;13.60;10.52;;;;;;;;;;5083002;28;20036;-78
2022/10/12 10:51:38;;;;;;;14.20;11.32;;;;;;;;;;5080524;28;20039;-75
2022/10/12 10:54:26;;;;;;;13.50;10.13;;;;;;;;;;5080712;28;20020;-76
2022/10/12 10:57:00;;;;;;;13.13;11.40;;;;;;;;;;5061369;28;20459;-75
2022/10/12 10:59:25;;;;;;;10.82;9.43;;;;;;;;;;5069652;28;20442;-75
2022/10/12 11:01:54;;;;;;;13.77;8.85;;;;;;;;;;5071858;28;20081;-75
2022/10/12 11:04:23;;;;;;;15.48;10.45;;;;;;;;;;5069746;28;20423;-75
2022/10/12 11:07:11;;;;;;;10.98;9.05;;;;;;;;;;5072514;28;20032;-75
2022/10/12 11:09:40;;;;;;;15.40;9.83;;;;;;;;;;5080921;28;20062;-75
2022/10/12 11:12:08;;;;;;;16.90;11.23;;;;;;;;;;5081924;28;20032;-76
2022/10/12 11:14:35;;;;;;;13.82;9.90;;;;;;;;;;5081174;28;20040;-76
2022/10/12 11:17:04;;;;;;;14.10;8.85;;;;;;;;;;5081229;28;20069;-76
2022/10/12 11:19:29;;;;;;;11.90;9.57;;;;;;;;;;5082077;28;20028;-76
2022/10/12 11:22:14;;;;;;;15.90;9.88;;;;;;;;;;5082563;28;20450;-77
2022/10/12 11:24:39;;;;;;;12.57;9.10;;;;;;;;;;5081101;28;20028;-78
2022/10/12 11:27:20;;;;;;;12.68;10.63;;;;;;;;;;5082440;28;20111;-76
2022/10/12 11:29:45;;;;;;;10.48;9.30;;;;;;;;;;5082377;28;20032;-76
2022/10/12 11:32:24;;;;;;;11.40;9.55;;;;;;;;;;5079726;28;20043;-77
2022/10/12 11:34:55;;;;;;;10.43;9.13;;;;;;;;;;5080968;28;20443;-77
2022/10/12 11:37:24;;;;;;;15.57;8.98;;;;;;;;;;5080121;28;20047;-76
2022/10/12 11:39:52;;;;;;;14.77;9.25;;;;;;;;;;5079585;28;20093;-77
2022/10/12 11:42:29;;;;;;;9.30;8.23;;;;;;;;;;5080403;28;20024;-75
2022/10/12 11:44:55;;;;;;;12.40;8.48;;;;;;;;;;5080539;28;20081;-75
2022/10/12 11:47:32;;;;;;;10.32;7.65;;;;;;;;;;5081136;28;20055;-77
2022/10/12 11:49:59;;;;;;;9.40;7.93;;;;;;;;;;5080237;28;20064;-76
2022/10/12 11:52:27;;;;;;;11.07;8.60;;;;;;;;;;5080249;28;20032;-77
2022/10/12 11:54:53;;;;;;;9.63;8.27;;;;;;;;;;5080317;28;20024;-77
2022/10/12 11:57:21;;;;;;;11.57;8.70;;;;;;;;;;5080674;28;20055;-76
2022/10/12 12:00:02;;;;;;;12.20;9.25;;;;;;;;;;5081151;28;20028;-74
2022/10/12 12:02:30;;;;;;;9.35;8.23;;;;;;;;;;5081919;28;20023;-77
2022/10/12 12:04:55;;;;;;;9.90;8.38;;;;;;;;;;5080885;28;20028;-74
2022/10/12 12:07:40;;;;;;;10.68;8.93;;;;;;;;;;5079483;28;20055;-76
2022/10/12 12:10:25;;;;;;;10.20;9.15;;;;;;;;;;5078464;28;20024;-75
2022/10/12 12:13:10;;;;;;;10.48;8.25;;;;;;;;;;5080367;28;20032;-75
2022/10/12 12:15:36;;;;;;;20.73;8.65;;;;;;;;;;5081971;28;20030;-79
2022/10/12 12:18:10;;;;;;;11.63;8.80;;;;;;;;;;5081220;28;20081;-76
2022/10/12 12:21:03;;;;;;;11.85;8.52;;;;;;;;;;5079803;28;20020;-77
2022/10/12 12:23:36;;;;;;;11.48;8.88;;;;;;;;;;5025751;28;20037;-77
2022/10/12 12:26:10;;;;;;;10.93;8.43;;;;;;;;;;5025337;28;20168;-74
2022/10/12 12:28:58;;;;;;;11.77;8.80;;;;;;;;;;5024556;28;20053;-77
2022/10/12 12:31:23;;;;;;;11.13;9.57;;;;;;;;;;5023489;28;20029;-75
2022/10/12 12:33:59;;;;;;;10.23;8.63;;;;;;;;;;5024076;28;20045;-75
2022/10/12 12:36:34;;;;;;;9.82;8.93;;;;;;;;;;5023687;28;20021;-77
2022/10/12 12:39:01;;;;;;;16.90;9.25;;;;;;;;;;5022481;28;20123;-77
2022/10/12 12:41:44;;;;;;;10.90;8.95;;;;;;;;;;5023223;28;20034;-76
2022/10/12 12:44:30;;;;;;;11.70;8.32;;;;;;;;;;5024429;28;20623;-76
2022/10/12 12:46:55;;;;;;;12.35;8.05;;;;;;;;;;5024567;28;20049;-75
2022/10/12 12:49:28;;;;;;;10.13;8.30;;;;;;;;;;5024535;28;20100;-75
2022/10/12 12:51:56;;;;;;;19.42;11.25;;;;;;;;;;5025654;28;20033;-75
2022/10/12 12:54:22;;;;;;;11.25;8.13;;;;;;;;;;5023978;28;20088;-76
2022/10/12 12:57:06;;;;;;;10.90;8.30;;;;;;;;;;5025185;28;20069;-75
2022/10/12 12:59:35;;;;;;;19.23;13.68;;;;;;;;;;5034328;28;20444;-77
2022/10/12 13:02:16;;;;;;;23.73;13.48;;;;;;;;;;5079098;28;20024;-75
2022/10/12 13:05:05;;;;;;;11.23;8.70;;;;;;;;;;5079848;28;20036;-76
2022/10/12 13:07:33;;;;;;;12.57;8.45;;;;;;;;;;5080103;28;20024;-77
2022/10/12 13:10:17;;;;;;;14.67;9.83;;;;;;;;;;5078454;28;20085;-77
2022/10/12 13:12:49;;;;;;;16.95;9.40;;;;;;;;;;5077509;28;20020;-78
2022/10/12 13:15:33;;;;;;;18.23;13.30;;;;;;;;;;5071821;28;20443;-77
2022/10/12 13:18:13;;;;;;;12.95;10.35;;;;;;;;;;5069431;28;20028;-78
2022/10/12 13:20:45;;;;;;;12.50;9.77;;;;;;;;;;5075983;28;20032;-77
2022/10/12 13:23:14;;;;;;;16.88;8.77;;;;;;;;;;5071391;28;20440;-77
2022/10/12 13:25:40;;;;;;;;;;;;;;;;;;5079996;28;20028;-76
2022/10/12 13:28:09;;;;;;;14.03;9.50;;;;;;;;;;5080080;28;19908;-79
2022/10/12 13:30:37;;;;;;;16.25;10.80;;;;;;;;;;5079654;28;20039;-77
2022/10/12 13:33:11;;;;;;;21.75;19.05;;;;;;;;;;5079034;28;20024;-78
2022/10/12 13:35:42;;;;;;;17.50;13.07;;;;;;;;;;5078200;28;20045;-75
2022/10/12 13:38:13;;;;;;;16.30;12.95;;;;;;;;;;5079088;28;20124;-75
2022/10/12 13:40:40;;;;;;;15.15;11.32;;;;;;;;;;5079849;28;20031;-76
2022/10/12 13:43:24;;;;;;;11.43;10.27;;;;;;;;;;5080055;28;20028;-78
2022/10/12 13:45:50;;;;;;;14.05;12.40;;;;;;;;;;5079312;28;20568;-76
2022/10/12 13:48:17;;;;;;;21.48;13.93;;;;;;;;;;5079877;28;20172;-77
2022/10/12 13:50:51;;;;;;;26.27;13.95;;;;;;;;;;5083984;28;20170;-77
2022/10/12 13:53:16;;;;;;;14.35;9.70;;;;;;;;;;5084351;28;20020;-78
2022/10/12 13:55:42;;;;;;;10.85;9.40;;;;;;;;;;5083009;28;20462;-76
2022/10/12 13:58:22;;;;;;;17.23;11.00;;;;;;;;;;5072429;28;20086;-78
2022/10/12 14:00:48;;;;;;;20.88;11.05;;;;;;;;;;5082772;28;20026;-78
2022/10/12 14:03:13;;;;;;;15.20;11.73;;;;;;;;;;5083321;28;20028;-78
2022/10/12 14:05:43;;;;;;;12.45;10.40;;;;;;;;;;5083646;28;20028;-77
2022/10/12 14:08:16;;;;;;;10.32;9.23;;;;;;;;;;5081006;28;20059;-77
2022/10/12 14:10:43;;;;;;;14.40;9.60;;;;;;;;;;5070369;28;20400;-77
2022/10/12 14:13:12;;;;;;;12.77;9.63;;;;;;;;;;5070024;28;20107;-78
2022/10/12 14:15:39;;;;;;;10.93;9.02;;;;;;;;;;5071184;28;20051;-78
2022/10/12 14:18:24;;;;;;;17.33;9.48;;;;;;;;;;5070413;28;20330;-79
2022/10/12 14:20:50;;;;;;;15.15;9.77;;;;;;;;;;5076532;28;20020;-78
2022/10/12 14:23:19;;;;;;;11.18;9.85;;;;;;;;;;5070388;28;20023;-77
2022/10/12 14:25:44;;;;;;;;;;;;;;;;;;5070954;28;20054;-76
2022/10/12 14:28:19;;;;;;;10.53;9.13;;;;;;;;;;5069773;28;19915;-76